Oxnard, California
Current Conditions -  °F | °C
As of 6:51 PM on Friday 21 Nov 2014 (Local Time) from KOXR Reporting Station
Clear Clear  
Wind Chill: 61°   Ceiling: Unl
Heat Index: 61°   Visibility: 9mi
Dew Point: 57°   Wind: 5mph
Humidity: 87%   Direction: 60°ENE
Pressure: 29.99"   Gusts: NA
Location:  34.2°N, 119.18°W
Report Text: KOXR 220251Z 06004KT 9SM CLR 16/14 A2999 RMK AO2 SLP155 T01610139 53014
Loading
Personal Weather Stations






























Interactive Weather Map New forecast layout! Learn more

10-Day Weather Forecast

Advertisements
Track Severe Weather on mobile